Time,TemperatureF,DewpointF,PressureIn,WindDirection,WindDirectionDegrees,WindSpeedMPH,WindSpeedGustMPH,Humidity,HourlyPrecipIn,Conditions,Clouds,dailyrainin,SoftwareType,DateUTC
2013-03-30 00:02:00,34.9,13.0,23.59,South,191,0.0,0.0,40,0.00,,---,0.00,VWS V14.00,2013-03-30 07:02:00,
2013-03-30 00:07:00,34.9,13.0,23.59,South,191,0.0,0.0,40,0.00,,---,0.00,VWS V14.00,2013-03-30 07:07:00,
2013-03-30 00:12:00,34.7,12.9,23.59,South,191,0.0,0.0,40,0.00,,---,0.00,VWS V14.00,2013-03-30 07:12:00,
2013-03-30 00:17:00,34.5,12.7,23.59,South,191,0.0,0.0,40,0.00,,---,0.00,VWS V14.00,2013-03-30 07:17:00,
2013-03-30 00:22:00,34.3,12.5,23.59,South,191,0.0,0.0,40,0.00,,---,0.00,VWS V14.00,2013-03-30 07:22:00,
2013-03-30 00:28:00,34.2,12.4,23.59,South,191,0.0,0.0,40,0.00,,---,0.00,VWS V14.00,2013-03-30 07:28:00,
2013-03-30 00:33:00,34.0,12.2,23.59,South,191,0.0,0.0,40,0.00,,---,0.00,VWS V14.00,2013-03-30 07:33:00,
2013-03-30 00:38:00,33.8,12.1,23.59,South,191,0.0,0.0,40,0.00,,---,0.00,VWS V14.00,2013-03-30 07:38:00,
2013-03-30 00:43:00,33.8,12.1,23.59,South,191,0.0,0.0,40,0.00,,---,0.00,VWS V14.00,2013-03-30 07:43:00,
2013-03-30 00:48:00,33.6,12.4,23.59,South,191,0.0,0.0,41,0.00,,---,0.00,VWS V14.00,2013-03-30 07:48:00,
2013-03-30 00:53:00,33.4,12.3,23.59,South,191,0.0,0.0,41,0.00,,---,0.00,VWS V14.00,2013-03-30 07:53:00,
2013-03-30 00:58:00,33.3,12.1,23.59,South,191,0.0,0.0,41,0.00,,---,0.00,VWS V14.00,2013-03-30 07:58:00,
2013-03-30 01:03:00,33.1,12.0,23.59,South,191,0.0,0.0,41,0.00,,---,0.00,VWS V14.00,2013-03-30 08:03:00,
2013-03-30 01:09:00,32.9,11.8,23.59,South,191,0.0,0.0,41,0.00,,---,0.00,VWS V14.00,2013-03-30 08:09:00,
2013-03-30 01:14:00,32.7,11.6,23.56,South,191,0.0,0.0,41,0.00,,---,0.00,VWS V14.00,2013-03-30 08:14:00,
2013-03-30 01:19:00,32.5,11.5,23.56,South,191,0.0,0.0,41,0.00,,---,0.00,VWS V14.00,2013-03-30 08:19:00,
2013-03-30 01:24:00,32.4,11.3,23.56,South,191,0.0,0.0,41,0.00,,---,0.00,VWS V14.00,2013-03-30 08:24:00,
2013-03-30 01:29:00,32.2,11.1,23.56,South,191,0.0,0.0,41,0.00,,---,0.00,VWS V14.00,2013-03-30 08:29:00,
2013-03-30 01:34:00,32.2,11.1,23.56,South,191,0.0,0.0,41,0.00,,---,0.00,VWS V14.00,2013-03-30 08:34:00,
2013-03-30 01:39:00,31.8,10.8,23.56,South,191,0.0,0.0,41,0.00,,---,0.00,VWS V14.00,2013-03-30 08:39:00,
2013-03-30 01:44:00,31.6,10.6,23.59,South,191,0.0,0.0,41,0.00,,---,0.00,VWS V14.00,2013-03-30 08:44:00,
2013-03-30 01:50:00,31.5,10.5,23.59,South,191,0.0,0.0,41,0.00,,---,0.00,VWS V14.00,2013-03-30 08:50:00,
2013-03-30 01:55:00,31.3,10.3,23.59,South,191,0.0,0.0,41,0.00,,---,0.00,VWS V14.00,2013-03-30 08:55:00,
2013-03-30 02:00:00,31.1,10.2,23.56,South,191,0.0,0.0,41,0.00,,---,0.00,VWS V14.00,2013-03-30 09:00:00,
2013-03-30 02:05:00,31.1,10.2,23.56,South,191,0.0,0.0,41,0.00,,---,0.00,VWS V14.00,2013-03-30 09:05:00,
2013-03-30 02:10:00,30.9,10.0,23.56,South,191,0.0,0.0,41,0.00,,---,0.00,VWS V14.00,2013-03-30 09:10:00,
2013-03-30 02:15:00,30.9,10.0,23.56,South,191,0.0,0.0,41,0.00,,---,0.00,VWS V14.00,2013-03-30 09:15:00,
2013-03-30 02:20:00,30.9,10.0,23.56,South,191,0.0,0.0,41,0.00,,---,0.00,VWS V14.00,2013-03-30 09:20:00,
2013-03-30 02:25:00,30.7,9.8,23.56,South,191,0.0,0.0,41,0.00,,---,0.00,VWS V14.00,2013-03-30 09:25:00,
2013-03-30 02:30:00,30.6,9.7,23.56,South,191,0.0,0.0,41,0.00,,---,0.00,VWS V14.00,2013-03-30 09:30:00,
2013-03-30 02:35:00,30.4,9.5,23.56,South,191,0.0,0.0,41,0.00,,---,0.00,VWS V14.00,2013-03-30 09:35:00,
2013-03-30 02:40:00,30.4,9.5,23.56,South,191,0.0,0.0,41,0.00,,---,0.00,VWS V14.00,2013-03-30 09:40:00,
2013-03-30 02:45:00,30.4,9.5,23.59,South,191,0.0,0.0,41,0.00,,---,0.00,VWS V14.00,2013-03-30 09:45:00,
2013-03-30 02:50:00,30.2,9.4,23.59,South,191,0.0,0.0,41,0.00,,---,0.00,VWS V14.00,2013-03-30 09:50:00,
2013-03-30 02:55:00,30.2,9.4,23.59,South,191,0.0,0.0,41,0.00,,---,0.00,VWS V14.00,2013-03-30 09:55:00,
2013-03-30 03:01:00,30.2,9.4,23.59,South,191,0.0,0.0,41,0.00,,---,0.00,VWS V14.00,2013-03-30 10:01:00,
2013-03-30 03:06:00,30.2,9.4,23.59,South,191,0.0,0.0,41,0.00,,---,0.00,VWS V14.00,2013-03-30 10:06:00,
2013-03-30 03:11:00,30.2,9.4,23.59,South,191,0.0,0.0,41,0.00,,---,0.00,VWS V14.00,2013-03-30 10:11:00,
2013-03-30 03:16:00,30.2,9.4,23.59,South,191,0.0,0.0,41,0.00,,---,0.00,VWS V14.00,2013-03-30 10:16:00,
2013-03-30 03:22:00,30.0,9.2,23.59,South,191,0.0,0.0,41,0.00,,---,0.00,VWS V14.00,2013-03-30 10:22:00,
2013-03-30 03:27:00,29.8,9.0,23.56,South,191,0.0,0.0,41,0.00,,---,0.00,VWS V14.00,2013-03-30 10:27:00,
2013-03-30 03:32:00,29.8,9.0,23.56,South,191,0.0,0.0,41,0.00,,---,0.00,VWS V14.00,2013-03-30 10:32:00,
2013-03-30 03:37:00,29.7,8.9,23.56,South,191,0.0,0.0,41,0.00,,---,0.00,VWS V14.00,2013-03-30 10:37:00,
2013-03-30 03:42:00,29.7,8.9,23.56,South,191,0.0,0.0,41,0.00,,---,0.00,VWS V14.00,2013-03-30 10:42:00,
2013-03-30 03:47:00,29.5,8.7,23.56,South,191,0.0,0.0,41,0.00,,---,0.00,VWS V14.00,2013-03-30 10:47:00,
2013-03-30 03:52:00,29.5,8.7,23.56,South,191,0.0,0.0,41,0.00,,---,0.00,VWS V14.00,2013-03-30 10:52:00,
2013-03-30 03:57:00,29.5,8.7,23.56,South,191,0.0,0.0,41,0.00,,---,0.00,VWS V14.00,2013-03-30 10:57:00,
2013-03-30 04:03:00,29.5,8.7,23.56,South,191,0.0,0.0,41,0.00,,---,0.00,VWS V14.00,2013-03-30 11:03:00,
2013-03-30 04:08:00,29.7,8.9,23.56,South,191,0.0,0.0,41,0.00,,---,0.00,VWS V14.00,2013-03-30 11:08:00,
2013-03-30 04:13:00,29.7,8.9,23.56,South,191,0.0,0.0,41,0.00,,---,0.00,VWS V14.00,2013-03-30 11:13:00,
2013-03-30 04:18:00,29.7,8.9,23.56,South,191,0.0,0.0,41,0.00,,---,0.00,VWS V14.00,2013-03-30 11:18:00,
2013-03-30 04:23:00,29.8,9.0,23.56,South,191,0.0,0.0,41,0.00,,---,0.00,VWS V14.00,2013-03-30 11:23:00,
2013-03-30 04:28:00,30.0,9.2,23.56,South,191,0.0,0.0,41,0.00,,---,0.00,VWS V14.00,2013-03-30 11:28:00,
2013-03-30 04:34:00,30.0,9.2,23.56,South,191,0.0,0.0,41,0.00,,---,0.00,VWS V14.00,2013-03-30 11:34:00,
2013-03-30 04:39:00,30.2,9.4,23.56,South,191,0.0,0.0,41,0.00,,---,0.00,VWS V14.00,2013-03-30 11:39:00,
2013-03-30 04:44:00,30.2,9.4,23.56,South,191,0.0,0.0,41,0.00,,---,0.00,VWS V14.00,2013-03-30 11:44:00,
2013-03-30 04:49:00,30.4,9.5,23.56,South,191,0.0,0.0,41,0.00,,---,0.00,VWS V14.00,2013-03-30 11:49:00,
2013-03-30 04:55:00,30.4,9.5,23.56,South,191,0.0,0.0,41,0.00,,---,0.00,VWS V14.00,2013-03-30 11:55:00,
2013-03-30 05:00:00,30.4,9.5,23.56,South,191,0.0,0.0,41,0.00,,---,0.00,VWS V14.00,2013-03-30 12:00:00,
2013-03-30 05:05:00,30.4,9.5,23.56,South,191,0.0,0.0,41,0.00,,---,0.00,VWS V14.00,2013-03-30 12:05:00,
2013-03-30 05:10:00,30.2,9.4,23.56,South,191,0.0,0.0,41,0.00,,---,0.00,VWS V14.00,2013-03-30 12:10:00,
2013-03-30 05:15:00,30.2,9.4,23.56,South,191,0.0,0.0,41,0.00,,---,0.00,VWS V14.00,2013-03-30 12:15:00,
2013-03-30 05:20:00,30.0,9.2,23.56,South,191,0.0,0.0,41,0.00,,---,0.00,VWS V14.00,2013-03-30 12:20:00,
2013-03-30 05:25:00,29.8,9.0,23.56,South,191,0.0,0.0,41,0.00,,---,0.00,VWS V14.00,2013-03-30 12:25:00,
2013-03-30 05:31:00,29.8,9.0,23.56,South,191,0.0,0.0,41,0.00,,---,0.00,VWS V14.00,2013-03-30 12:31:00,
2013-03-30 05:36:00,29.7,8.9,23.56,South,191,0.0,0.0,41,0.00,,---,0.00,VWS V14.00,2013-03-30 12:36:00,
2013-03-30 05:41:00,29.7,8.9,23.56,South,191,0.0,0.0,41,0.00,,---,0.00,VWS V14.00,2013-03-30 12:41:00,
2013-03-30 05:46:00,29.7,8.9,23.56,South,191,0.0,0.0,41,0.00,,---,0.00,VWS V14.00,2013-03-30 12:46:00,
2013-03-30 05:51:00,29.7,8.9,23.56,South,191,0.0,0.0,41,0.00,,---,0.00,VWS V14.00,2013-03-30 12:51:00,
2013-03-30 05:56:00,29.8,9.0,23.56,South,191,0.0,0.0,41,0.00,,---,0.00,VWS V14.00,2013-03-30 12:56:00,
2013-03-30 06:01:00,30.2,9.4,23.56,South,191,0.0,0.0,41,0.00,,---,0.00,VWS V14.00,2013-03-30 13:01:00,
2013-03-30 06:06:00,30.2,9.4,23.56,South,191,0.0,0.0,41,0.00,,---,0.00,VWS V14.00,2013-03-30 13:06:00,
2013-03-30 06:11:00,30.4,9.5,23.56,South,191,0.0,0.0,41,0.00,,---,0.00,VWS V14.00,2013-03-30 13:11:00,
2013-03-30 06:17:00,30.4,9.5,23.56,South,191,0.0,0.0,41,0.00,,---,0.00,VWS V14.00,2013-03-30 13:17:00,
2013-03-30 06:22:00,30.6,9.7,23.56,South,191,0.0,0.0,41,0.00,,---,0.00,VWS V14.00,2013-03-30 13:22:00,
2013-03-30 06:27:00,30.7,9.8,23.56,South,191,0.0,0.0,41,0.00,,---,0.00,VWS V14.00,2013-03-30 13:27:00,
2013-03-30 06:32:00,31.1,10.2,23.56,South,191,0.0,0.0,41,0.00,,---,0.00,VWS V14.00,2013-03-30 13:32:00,
2013-03-30 06:37:00,31.3,10.3,23.56,South,191,0.0,0.0,41,0.00,,---,0.00,VWS V14.00,2013-03-30 13:37:00,
2013-03-30 06:43:00,31.6,10.6,23.56,South,191,0.0,0.0,41,0.00,,---,0.00,VWS V14.00,2013-03-30 13:43:00,
2013-03-30 06:48:00,32.0,11.0,23.56,South,191,0.0,0.0,41,0.00,,---,0.00,VWS V14.00,2013-03-30 13:48:00,
2013-03-30 06:53:00,32.2,11.1,23.56,South,191,0.0,0.0,41,0.00,,---,0.00,VWS V14.00,2013-03-30 13:53:00,
2013-03-30 06:58:00,32.5,11.5,23.56,South,191,0.0,0.0,41,0.00,,---,0.00,VWS V14.00,2013-03-30 13:58:00,
2013-03-30 07:03:00,32.7,11.6,23.56,South,191,0.0,0.0,41,0.00,,---,0.00,VWS V14.00,2013-03-30 14:03:00,
2013-03-30 07:09:00,33.1,12.0,23.56,South,191,0.0,0.0,41,0.00,,---,0.00,VWS V14.00,2013-03-30 14:09:00,
2013-03-30 07:14:00,33.6,12.4,23.56,South,191,0.0,0.0,41,0.00,,---,0.00,VWS V14.00,2013-03-30 14:14:00,
2013-03-30 07:19:00,33.8,12.1,23.56,South,191,0.0,0.0,40,0.00,,---,0.00,VWS V14.00,2013-03-30 14:19:00,
2013-03-30 07:24:00,34.3,12.5,23.56,South,191,0.0,0.0,40,0.00,,---,0.00,VWS V14.00,2013-03-30 14:24:00,
2013-03-30 07:29:00,34.7,12.9,23.56,South,191,0.0,0.0,40,0.00,,---,0.00,VWS V14.00,2013-03-30 14:29:00,
2013-03-30 07:34:00,35.2,13.4,23.56,South,191,0.0,0.0,40,0.00,,---,0.00,VWS V14.00,2013-03-30 14:34:00,
2013-03-30 07:40:00,35.8,13.8,23.56,South,191,0.0,0.0,40,0.00,,---,0.00,VWS V14.00,2013-03-30 14:40:00,
2013-03-30 07:45:00,36.3,14.3,23.56,South,191,0.0,0.0,40,0.00,,---,0.00,VWS V14.00,2013-03-30 14:45:00,
2013-03-30 07:50:00,36.9,14.8,23.56,South,191,0.0,0.0,40,0.00,,---,0.00,VWS V14.00,2013-03-30 14:50:00,
2013-03-30 07:55:00,37.4,14.7,23.56,South,191,0.0,0.0,39,0.00,,---,0.00,VWS V14.00,2013-03-30 14:55:00,
2013-03-30 08:00:00,38.1,15.4,23.56,South,191,0.0,0.0,39,0.00,,---,0.00,VWS V14.00,2013-03-30 15:00:00,
2013-03-30 08:05:00,38.7,15.9,23.56,South,191,0.0,0.0,39,0.00,,---,0.00,VWS V14.00,2013-03-30 15:05:00,
2013-03-30 08:10:00,39.6,16.7,23.56,South,191,0.0,0.0,39,0.00,,---,0.00,VWS V14.00,2013-03-30 15:10:00,
2013-03-30 08:16:00,40.6,17.6,23.56,South,191,0.0,0.0,39,0.00,,---,0.00,VWS V14.00,2013-03-30 15:16:00,
2013-03-30 08:21:00,41.9,18.8,23.56,South,191,0.0,0.0,39,0.00,,---,0.00,VWS V14.00,2013-03-30 15:21:00,
2013-03-30 08:26:00,43.0,19.1,23.56,South,191,0.0,0.0,38,0.00,,---,0.00,VWS V14.00,2013-03-30 15:26:00,
2013-03-30 08:31:00,44.2,20.3,23.56,South,191,0.0,0.0,38,0.00,,---,0.00,VWS V14.00,2013-03-30 15:31:00,
2013-03-30 08:36:00,45.7,21.5,23.56,WNW,284,0.0,0.0,38,0.00,,---,0.00,VWS V14.00,2013-03-30 15:36:00,
2013-03-30 08:41:00,46.8,21.9,23.56,WNW,285,0.0,2.2,37,0.00,,---,0.00,VWS V14.00,2013-03-30 15:41:00,
2013-03-30 08:47:00,47.8,22.9,23.56,WNW,285,0.0,0.0,37,0.00,,---,0.00,VWS V14.00,2013-03-30 15:47:00,
2013-03-30 08:52:00,48.7,23.6,23.56,WNW,285,0.0,0.0,37,0.00,,---,0.00,VWS V14.00,2013-03-30 15:52:00,
2013-03-30 08:57:00,49.6,24.5,23.56,WNW,292,0.0,0.0,37,0.00,,---,0.00,VWS V14.00,2013-03-30 15:57:00,
2013-03-30 09:03:00,50.5,25.2,23.56,WNW,292,0.0,0.0,37,0.00,,---,0.00,VWS V14.00,2013-03-30 16:03:00,
2013-03-30 09:08:00,51.6,26.2,23.56,WNW,292,0.0,0.0,37,0.00,,---,0.00,VWS V14.00,2013-03-30 16:08:00,
2013-03-30 09:13:00,52.3,26.2,23.56,WNW,292,0.0,0.0,36,0.00,,---,0.00,VWS V14.00,2013-03-30 16:13:00,
2013-03-30 09:18:00,53.2,27.0,23.56,West,260,0.0,0.0,36,0.00,,---,0.00,VWS V14.00,2013-03-30 16:18:00,
2013-03-30 09:23:00,54.0,27.6,23.56,WSW,256,0.0,0.0,36,0.00,,---,0.00,VWS V14.00,2013-03-30 16:23:00,
2013-03-30 09:28:00,54.5,28.1,23.56,SE,130,3.1,3.1,36,0.00,,---,0.00,VWS V14.00,2013-03-30 16:28:00,
2013-03-30 09:33:00,55.2,28.8,23.56,SE,138,0.0,0.0,36,0.00,,---,0.00,VWS V14.00,2013-03-30 16:33:00,
2013-03-30 09:39:00,55.9,28.7,23.56,SW,231,0.0,0.0,35,0.00,,---,0.00,VWS V14.00,2013-03-30 16:39:00,
2013-03-30 09:44:00,56.5,29.2,23.56,SW,219,0.0,0.0,35,0.00,,---,0.00,VWS V14.00,2013-03-30 16:44:00,
2013-03-30 09:49:00,57.0,29.7,23.56,South,180,0.0,0.0,35,0.00,,---,0.00,VWS V14.00,2013-03-30 16:49:00,
2013-03-30 09:54:00,57.4,30.0,23.56,SE,142,3.1,4.9,35,0.00,,---,0.00,VWS V14.00,2013-03-30 16:54:00,
2013-03-30 09:59:00,57.9,30.5,23.56,SSE,151,0.0,0.0,35,0.00,,---,0.00,VWS V14.00,2013-03-30 16:59:00,
2013-03-30 10:05:00,58.3,30.8,23.56,SSE,152,0.0,0.0,35,0.00,,---,0.00,VWS V14.00,2013-03-30 17:05:00,
2013-03-30 10:10:00,58.8,31.2,23.56,SW,231,2.7,5.4,35,0.00,,---,0.00,VWS V14.00,2013-03-30 17:10:00,
2013-03-30 10:15:00,59.2,31.6,23.56,SSE,156,4.0,4.0,35,0.00,,---,0.00,VWS V14.00,2013-03-30 17:15:00,
2013-03-30 10:20:00,59.7,32.0,23.56,SSW,211,3.1,3.6,35,0.00,,---,0.00,VWS V14.00,2013-03-30 17:20:00,
2013-03-30 10:25:00,60.1,32.4,23.56,South,182,0.0,2.2,35,0.00,,---,0.00,VWS V14.00,2013-03-30 17:25:00,
2013-03-30 10:30:00,60.3,32.5,23.56,SSW,210,3.1,3.1,35,0.00,,---,0.00,VWS V14.00,2013-03-30 17:30:00,
2013-03-30 10:36:00,60.4,32.7,23.56,SSE,152,8.1,8.1,35,0.00,,---,0.00,VWS V14.00,2013-03-30 17:36:00,
2013-03-30 10:41:00,60.3,32.5,23.56,SW,227,2.2,4.0,35,0.00,,---,0.00,VWS V14.00,2013-03-30 17:41:00,
2013-03-30 10:46:00,60.4,32.7,23.56,SE,137,2.2,3.6,35,0.00,,---,0.00,VWS V14.00,2013-03-30 17:46:00,
2013-03-30 10:51:00,60.6,32.8,23.56,SSW,203,3.1,3.1,35,0.00,,---,0.00,VWS V14.00,2013-03-30 17:51:00,
2013-03-30 10:56:00,60.6,32.8,23.56,SE,128,4.0,4.0,35,0.00,,---,0.00,VWS V14.00,2013-03-30 17:56:00,
2013-03-30 11:01:00,60.8,32.3,23.59,SSW,196,3.1,3.1,34,0.00,,---,0.00,VWS V14.00,2013-03-30 18:01:00,
2013-03-30 11:06:00,61.0,32.4,23.59,WSW,239,2.7,2.7,34,0.00,,---,0.00,VWS V14.00,2013-03-30 18:06:00,
2013-03-30 11:12:00,61.0,32.4,23.59,SSW,211,3.1,4.0,34,0.00,,---,0.00,VWS V14.00,2013-03-30 18:12:00,
2013-03-30 11:17:00,61.2,32.6,23.59,SW,217,3.1,3.1,34,0.00,,---,0.00,VWS V14.00,2013-03-30 18:17:00,
2013-03-30 11:22:00,61.3,32.8,23.59,SSW,202,4.0,4.0,34,0.00,,---,0.00,VWS V14.00,2013-03-30 18:22:00,
2013-03-30 11:27:00,61.5,32.9,23.59,SSW,202,2.7,3.6,34,0.00,,---,0.00,VWS V14.00,2013-03-30 18:27:00,
2013-03-30 11:32:00,61.5,32.9,23.56,South,175,3.1,3.6,34,0.00,,---,0.00,VWS V14.00,2013-03-30 18:32:00,
2013-03-30 11:37:00,61.9,33.2,23.56,South,176,3.1,4.0,34,0.00,,---,0.00,VWS V14.00,2013-03-30 18:37:00,
2013-03-30 11:42:00,62.2,33.5,23.56,SSW,210,5.8,5.8,34,0.00,,---,0.00,VWS V14.00,2013-03-30 18:42:00,
2013-03-30 11:47:00,62.2,33.5,23.56,South,173,2.2,4.9,34,0.00,,---,0.00,VWS V14.00,2013-03-30 18:47:00,
2013-03-30 11:52:00,62.2,33.5,23.56,SSE,150,3.1,3.6,34,0.00,,---,0.00,VWS V14.00,2013-03-30 18:52:00,
2013-03-30 11:57:00,62.4,33.7,23.56,South,178,0.0,3.6,34,0.00,,---,0.00,VWS V14.00,2013-03-30 18:57:00,
2013-03-30 12:03:00,62.6,33.9,23.56,SSW,193,2.7,4.0,34,0.00,,---,0.00,VWS V14.00,2013-03-30 19:03:00,
2013-03-30 12:08:00,63.0,34.2,23.56,SSE,155,7.6,8.1,34,0.00,,---,0.00,VWS V14.00,2013-03-30 19:08:00,
2013-03-30 12:13:00,63.1,34.3,23.56,SSE,160,5.4,8.1,34,0.00,,---,0.00,VWS V14.00,2013-03-30 19:13:00,
2013-03-30 12:18:00,63.3,34.5,23.56,SW,233,6.3,6.3,34,0.00,,---,0.00,VWS V14.00,2013-03-30 19:18:00,
2013-03-30 12:24:00,63.7,34.8,23.56,SSW,209,2.2,4.9,34,0.00,,---,0.00,VWS V14.00,2013-03-30 19:24:00,
2013-03-30 12:29:00,63.7,34.8,23.56,NW,312,5.4,6.3,34,0.00,,---,0.00,VWS V14.00,2013-03-30 19:29:00,
2013-03-30 12:34:00,63.5,34.7,23.56,WNW,283,6.3,6.3,34,0.00,,---,0.00,VWS V14.00,2013-03-30 19:34:00,
2013-03-30 12:39:00,63.3,34.5,23.56,SSW,213,0.0,3.1,34,0.00,,---,0.00,VWS V14.00,2013-03-30 19:39:00,
2013-03-30 12:44:00,63.3,34.5,23.56,WSW,245,5.8,5.8,34,0.00,,---,0.00,VWS V14.00,2013-03-30 19:44:00,
2013-03-30 12:49:00,63.3,34.5,23.56,SSW,193,2.2,2.2,34,0.00,,---,0.00,VWS V14.00,2013-03-30 19:49:00,
2013-03-30 12:54:00,63.5,34.7,23.56,SSW,211,3.1,4.9,34,0.00,,---,0.00,VWS V14.00,2013-03-30 19:54:00,
2013-03-30 13:00:00,63.9,35.0,23.56,SW,226,0.0,6.3,34,0.00,,---,0.00,VWS V14.00,2013-03-30 20:00:00,
2013-03-30 13:05:00,64.6,34.8,23.56,SSE,147,4.0,6.3,33,0.00,,---,0.00,VWS V14.00,2013-03-30 20:05:00,
2013-03-30 13:10:00,65.1,35.3,23.56,WSW,252,2.7,3.6,33,0.00,,---,0.00,VWS V14.00,2013-03-30 20:10:00,
2013-03-30 13:15:00,65.3,35.5,23.56,SSW,209,0.0,2.2,33,0.00,,---,0.00,VWS V14.00,2013-03-30 20:15:00,
2013-03-30 13:20:00,64.9,35.2,23.56,West,264,5.4,8.1,33,0.00,,---,0.00,VWS V14.00,2013-03-30 20:20:00,
2013-03-30 13:25:00,64.8,35.0,23.56,WNW,283,4.9,5.4,33,0.00,,---,0.00,VWS V14.00,2013-03-30 20:25:00,
2013-03-30 13:30:00,64.9,35.2,23.56,SW,226,2.7,4.0,33,0.00,,---,0.00,VWS V14.00,2013-03-30 20:30:00,
2013-03-30 13:36:00,65.5,35.6,23.56,SW,217,2.7,3.1,33,0.00,,---,0.00,VWS V14.00,2013-03-30 20:36:00,
2013-03-30 13:41:00,65.7,35.8,23.56,SW,216,2.7,3.1,33,0.00,,---,0.00,VWS V14.00,2013-03-30 20:41:00,
2013-03-30 13:46:00,65.8,36.0,23.54,NW,324,0.0,0.0,33,0.00,,---,0.00,VWS V14.00,2013-03-30 20:46:00,
2013-03-30 13:51:00,65.5,35.6,23.54,South,173,3.1,4.0,33,0.00,,---,0.00,VWS V14.00,2013-03-30 20:51:00,
2013-03-30 13:57:00,65.8,36.0,23.54,SSW,204,3.6,5.8,33,0.00,,---,0.00,VWS V14.00,2013-03-30 20:57:00,
2013-03-30 14:02:00,65.8,36.0,23.54,NW,310,0.0,4.9,33,0.00,,---,0.00,VWS V14.00,2013-03-30 21:02:00,
2013-03-30 14:07:00,65.5,35.6,23.54,SW,227,3.1,3.1,33,0.00,,---,0.00,VWS V14.00,2013-03-30 21:07:00,
2013-03-30 14:12:00,65.5,35.6,23.54,SW,234,2.7,4.9,33,0.00,,---,0.00,VWS V14.00,2013-03-30 21:12:00,
2013-03-30 14:17:00,65.5,35.6,23.54,SSE,160,3.1,3.6,33,0.00,,---,0.00,VWS V14.00,2013-03-30 21:17:00,
2013-03-30 14:22:00,65.3,35.5,23.54,South,170,4.9,5.4,33,0.00,,---,0.00,VWS V14.00,2013-03-30 21:22:00,
2013-03-30 14:28:00,65.1,35.3,23.54,SW,222,5.4,6.3,33,0.00,,---,0.00,VWS V14.00,2013-03-30 21:28:00,
2013-03-30 14:33:00,64.8,35.0,23.54,WSW,240,5.8,6.3,33,0.00,,---,0.00,VWS V14.00,2013-03-30 21:33:00,
2013-03-30 14:38:00,64.2,35.3,23.54,WSW,246,5.4,5.4,34,0.00,,---,0.00,VWS V14.00,2013-03-30 21:38:00,
2013-03-30 14:43:00,63.5,34.7,23.54,NNW,341,7.6,7.6,34,0.00,,---,0.00,VWS V14.00,2013-03-30 21:43:00,
2013-03-30 14:48:00,63.3,34.5,23.54,SW,226,3.1,4.0,34,0.00,,---,0.00,VWS V14.00,2013-03-30 21:48:00,
2013-03-30 14:54:00,64.2,35.3,23.54,NW,306,5.8,7.6,34,0.00,,---,0.00,VWS V14.00,2013-03-30 21:54:00,
2013-03-30 14:59:00,64.6,34.8,23.54,SSE,164,3.6,4.9,33,0.00,,---,0.00,VWS V14.00,2013-03-30 21:59:00,
2013-03-30 15:04:00,64.8,35.0,23.54,South,186,6.3,6.3,33,0.00,,---,0.00,VWS V14.00,2013-03-30 22:04:00,
2013-03-30 15:09:00,64.9,35.2,23.54,SSW,204,5.4,8.7,33,0.00,,---,0.00,VWS V14.00,2013-03-30 22:09:00,
2013-03-30 15:14:00,64.4,34.7,23.54,WSW,248,2.7,3.1,33,0.00,,---,0.00,VWS V14.00,2013-03-30 22:14:00,
2013-03-30 15:20:00,64.2,35.3,23.54,SSW,213,0.0,4.0,34,0.00,,---,0.00,VWS V14.00,2013-03-30 22:20:00,
2013-03-30 15:25:00,63.9,35.0,23.54,SW,231,4.9,6.3,34,0.00,,---,0.00,VWS V14.00,2013-03-30 22:25:00,
2013-03-30 15:30:00,63.1,34.3,23.54,WSW,238,3.6,4.0,34,0.00,,---,0.00,VWS V14.00,2013-03-30 22:30:00,
2013-03-30 15:35:00,62.4,33.7,23.54,WNW,297,4.9,7.6,34,0.00,,---,0.00,VWS V14.00,2013-03-30 22:35:00,
2013-03-30 15:40:00,61.9,33.2,23.54,WSW,241,4.0,4.9,34,0.00,,---,0.00,VWS V14.00,2013-03-30 22:40:00,
2013-03-30 15:45:00,61.7,33.1,23.54,WSW,250,5.4,5.4,34,0.00,,---,0.00,VWS V14.00,2013-03-30 22:45:00,
2013-03-30 15:51:00,61.7,33.1,23.54,WNW,302,4.0,4.0,34,0.00,,---,0.00,VWS V14.00,2013-03-30 22:51:00,
2013-03-30 15:56:00,61.7,33.1,23.54,WSW,257,5.8,7.6,34,0.00,,---,0.00,VWS V14.00,2013-03-30 22:56:00,
2013-03-30 16:01:00,61.9,33.2,23.54,NW,308,8.1,8.1,34,0.00,,---,0.00,VWS V14.00,2013-03-30 23:01:00,
2013-03-30 16:06:00,61.7,33.1,23.54,West,263,2.7,3.6,34,0.00,,---,0.00,VWS V14.00,2013-03-30 23:06:00,
2013-03-30 16:12:00,61.9,33.2,23.54,NW,315,0.0,3.6,34,0.00,,---,0.00,VWS V14.00,2013-03-30 23:12:00,
2013-03-30 16:17:00,62.1,33.4,23.51,NW,322,6.3,6.3,34,0.00,,---,0.00,VWS V14.00,2013-03-30 23:17:00,
2013-03-30 16:22:00,62.2,33.5,23.51,West,259,5.8,7.2,34,0.00,,---,0.00,VWS V14.00,2013-03-30 23:22:00,
2013-03-30 16:27:00,63.0,34.2,23.51,NW,317,8.3,8.3,34,0.00,,---,0.00,VWS V14.00,2013-03-30 23:27:00,
2013-03-30 16:32:00,63.5,34.7,23.51,WSW,252,5.4,6.3,34,0.00,,---,0.00,VWS V14.00,2013-03-30 23:32:00,
2013-03-30 16:37:00,64.0,35.1,23.51,SW,234,4.0,4.0,34,0.00,,---,0.00,VWS V14.00,2013-03-30 23:37:00,
2013-03-30 16:42:00,64.4,34.7,23.51,WSW,244,5.8,5.8,33,0.00,,---,0.00,VWS V14.00,2013-03-30 23:42:00,
2013-03-30 16:48:00,64.4,34.7,23.51,WNW,303,4.0,4.0,33,0.00,,---,0.00,VWS V14.00,2013-03-30 23:48:00,
2013-03-30 16:53:00,63.9,35.0,23.51,SW,236,3.1,4.0,34,0.00,,---,0.00,VWS V14.00,2013-03-30 23:53:00,
2013-03-30 16:58:00,63.5,34.7,23.51,North,357,3.1,3.1,34,0.00,,---,0.00,VWS V14.00,2013-03-30 23:58:00,
2013-03-30 17:03:00,63.5,34.7,23.51,SSW,209,4.5,4.5,34,0.00,,---,0.00,VWS V14.00,2013-03-31 00:03:00,
2013-03-30 17:08:00,63.5,34.7,23.51,WSW,248,0.0,0.0,34,0.00,,---,0.00,VWS V14.00,2013-03-31 00:08:00,
2013-03-30 17:14:00,63.1,34.3,23.51,West,274,4.9,5.4,34,0.00,,---,0.00,VWS V14.00,2013-03-31 00:14:00,
2013-03-30 17:19:00,62.6,33.9,23.51,West,266,6.3,6.3,34,0.00,,---,0.00,VWS V14.00,2013-03-31 00:19:00,
2013-03-30 17:24:00,61.7,33.1,23.51,NNW,337,4.0,6.3,34,0.00,,---,0.00,VWS V14.00,2013-03-31 00:24:00,
2013-03-30 17:29:00,60.4,32.7,23.51,North,357,2.7,4.0,35,0.00,,---,0.00,VWS V14.00,2013-03-31 00:29:00,
2013-03-30 17:34:00,60.1,32.4,23.51,NW,305,2.7,3.1,35,0.00,,---,0.00,VWS V14.00,2013-03-31 00:34:00,
2013-03-30 17:39:00,59.7,32.0,23.51,SW,231,4.0,5.4,35,0.00,,---,0.00,VWS V14.00,2013-03-31 00:39:00,
2013-03-30 17:44:00,59.5,31.9,23.51,West,276,3.6,8.7,35,0.00,,---,0.00,VWS V14.00,2013-03-31 00:44:00,
2013-03-30 17:49:00,59.7,32.0,23.51,West,262,3.1,4.0,35,0.00,,---,0.00,VWS V14.00,2013-03-31 00:49:00,
2013-03-30 17:54:00,59.7,32.0,23.51,NW,312,2.7,3.6,35,0.00,,---,0.00,VWS V14.00,2013-03-31 00:54:00,
2013-03-30 17:59:00,59.5,31.9,23.51,NNE,20,3.1,4.9,35,0.00,,---,0.00,VWS V14.00,2013-03-31 00:59:00,
2013-03-30 18:05:00,59.2,31.6,23.51,WNW,293,5.4,5.4,35,0.00,,---,0.00,VWS V14.00,2013-03-31 01:05:00,
2013-03-30 18:10:00,59.0,31.4,23.51,WNW,287,8.7,8.7,35,0.00,,---,0.00,VWS V14.00,2013-03-31 01:10:00,
2013-03-30 18:15:00,58.6,31.1,23.51,West,270,2.7,3.1,35,0.00,,---,0.00,VWS V14.00,2013-03-31 01:15:00,
2013-03-30 18:20:00,58.3,30.8,23.51,NW,313,4.0,6.3,35,0.00,,---,0.00,VWS V14.00,2013-03-31 01:20:00,
2013-03-30 18:25:00,57.9,30.5,23.51,NW,311,2.7,2.7,35,0.00,,---,0.00,VWS V14.00,2013-03-31 01:25:00,
2013-03-30 18:30:00,57.6,30.1,23.51,NW,316,0.0,0.0,35,0.00,,---,0.00,VWS V14.00,2013-03-31 01:30:00,
2013-03-30 18:36:00,57.2,29.8,23.51,WNW,290,0.0,0.0,35,0.00,,---,0.00,VWS V14.00,2013-03-31 01:36:00,
2013-03-30 18:41:00,57.0,29.7,23.51,WNW,288,0.0,0.0,35,0.00,,---,0.00,VWS V14.00,2013-03-31 01:41:00,
2013-03-30 18:46:00,56.7,29.3,23.51,WNW,288,0.0,0.0,35,0.00,,---,0.00,VWS V14.00,2013-03-31 01:46:00,
2013-03-30 18:51:00,56.3,29.0,23.51,WNW,288,0.0,0.0,35,0.00,,---,0.00,VWS V14.00,2013-03-31 01:51:00,
2013-03-30 18:56:00,55.9,28.7,23.51,WNW,288,0.0,0.0,35,0.00,,---,0.00,VWS V14.00,2013-03-31 01:56:00,
2013-03-30 19:01:00,55.4,28.2,23.51,WNW,288,0.0,0.0,35,0.00,,---,0.00,VWS V14.00,2013-03-31 02:01:00,
2013-03-30 19:07:00,55.0,28.6,23.51,WNW,288,0.0,0.0,36,0.00,,---,0.00,VWS V14.00,2013-03-31 02:07:00,
2013-03-30 19:12:00,54.5,28.1,23.54,WNW,288,0.0,0.0,36,0.00,,---,0.00,VWS V14.00,2013-03-31 02:12:00,
2013-03-30 19:17:00,54.1,27.8,23.54,WNW,288,0.0,0.0,36,0.00,,---,0.00,VWS V14.00,2013-03-31 02:17:00,
2013-03-30 19:22:00,53.6,27.3,23.54,WNW,288,0.0,0.0,36,0.00,,---,0.00,VWS V14.00,2013-03-31 02:22:00,
2013-03-30 19:27:00,53.1,26.8,23.54,WNW,288,0.0,0.0,36,0.00,,---,0.00,VWS V14.00,2013-03-31 02:27:00,
2013-03-30 19:32:00,52.7,26.5,23.54,WNW,288,0.0,0.0,36,0.00,,---,0.00,VWS V14.00,2013-03-31 02:32:00,
2013-03-30 19:38:00,52.3,26.2,23.54,WNW,288,0.0,0.0,36,0.00,,---,0.00,VWS V14.00,2013-03-31 02:38:00,
2013-03-30 19:43:00,52.0,25.9,23.54,WNW,288,0.0,0.0,36,0.00,,---,0.00,VWS V14.00,2013-03-31 02:43:00,
2013-03-30 19:48:00,51.4,26.0,23.54,WNW,288,0.0,0.0,37,0.00,,---,0.00,VWS V14.00,2013-03-31 02:48:00,
2013-03-30 19:53:00,50.9,25.6,23.54,WNW,288,0.0,0.0,37,0.00,,---,0.00,VWS V14.00,2013-03-31 02:53:00,
2013-03-30 19:58:00,50.4,25.1,23.54,WNW,288,0.0,0.0,37,0.00,,---,0.00,VWS V14.00,2013-03-31 02:58:00,
2013-03-30 20:03:00,49.8,24.6,23.54,WNW,288,0.0,0.0,37,0.00,,---,0.00,VWS V14.00,2013-03-31 03:03:00,
2013-03-30 20:08:00,49.1,24.0,23.54,WNW,288,0.0,0.0,37,0.00,,---,0.00,VWS V14.00,2013-03-31 03:08:00,
2013-03-30 20:14:00,48.6,23.5,23.54,WNW,288,0.0,0.0,37,0.00,,---,0.00,VWS V14.00,2013-03-31 03:14:00,
2013-03-30 20:19:00,47.8,22.9,23.54,WNW,288,0.0,0.0,37,0.00,,---,0.00,VWS V14.00,2013-03-31 03:19:00,
2013-03-30 20:24:00,47.3,22.4,23.54,WNW,288,0.0,0.0,37,0.00,,---,0.00,VWS V14.00,2013-03-31 03:24:00,
2013-03-30 20:29:00,46.8,21.9,23.54,WNW,288,0.0,0.0,37,0.00,,---,0.00,VWS V14.00,2013-03-31 03:29:00,
2013-03-30 20:34:00,46.0,21.9,23.54,WNW,288,0.0,0.0,38,0.00,,---,0.00,VWS V14.00,2013-03-31 03:34:00,
2013-03-30 20:39:00,45.5,21.4,23.54,WNW,288,0.0,0.0,38,0.00,,---,0.00,VWS V14.00,2013-03-31 03:39:00,
2013-03-30 20:45:00,45.0,20.9,23.54,WNW,288,0.0,0.0,38,0.00,,---,0.00,VWS V14.00,2013-03-31 03:45:00,
2013-03-30 20:50:00,44.6,20.6,23.54,WNW,288,0.0,0.0,38,0.00,,---,0.00,VWS V14.00,2013-03-31 03:50:00,
2013-03-30 20:55:00,43.9,19.9,23.54,WNW,288,0.0,0.0,38,0.00,,---,0.00,VWS V14.00,2013-03-31 03:55:00,
2013-03-30 21:00:00,43.5,19.6,23.54,WNW,288,0.0,0.0,38,0.00,,---,0.00,VWS V14.00,2013-03-31 04:00:00,
2013-03-30 21:02:00,43.2,19.3,23.54,WNW,288,0.0,0.0,38,0.00,,---,0.00,VWS V14.00,2013-03-31 04:02:00,
2013-03-30 21:03:00,43.2,19.3,23.54,WNW,288,0.0,0.0,38,0.00,,---,0.00,VWS V14.00,2013-03-31 04:03:00,
2013-03-30 21:08:00,42.6,19.4,23.54,WNW,288,0.0,0.0,39,0.00,,---,0.00,VWS V14.00,2013-03-31 04:08:00,
2013-03-30 21:13:00,42.3,19.1,23.54,WNW,288,0.0,0.0,39,0.00,,---,0.00,VWS V14.00,2013-03-31 04:13:00,
2013-03-30 21:18:00,41.7,18.6,23.54,WNW,288,0.0,0.0,39,0.00,,---,0.00,VWS V14.00,2013-03-31 04:18:00,
2013-03-30 21:23:00,41.4,18.3,23.54,WNW,288,0.0,0.0,39,0.00,,---,0.00,VWS V14.00,2013-03-31 04:23:00,
2013-03-30 21:28:00,41.0,18.0,23.54,WNW,288,0.0,0.0,39,0.00,,---,0.00,VWS V14.00,2013-03-31 04:28:00,
2013-03-30 21:33:00,40.6,17.6,23.54,WNW,288,0.0,0.0,39,0.00,,---,0.00,VWS V14.00,2013-03-31 04:33:00,
2013-03-30 21:38:00,40.5,17.5,23.54,WNW,288,0.0,0.0,39,0.00,,---,0.00,VWS V14.00,2013-03-31 04:38:00,
2013-03-30 21:44:00,40.1,17.1,23.54,WNW,288,0.0,0.0,39,0.00,,---,0.00,VWS V14.00,2013-03-31 04:44:00,
2013-03-30 21:49:00,39.7,16.8,23.54,WNW,288,0.0,0.0,39,0.00,,---,0.00,VWS V14.00,2013-03-31 04:49:00,
2013-03-30 21:54:00,39.4,16.5,23.54,WNW,288,0.0,0.0,39,0.00,,---,0.00,VWS V14.00,2013-03-31 04:54:00,
2013-03-30 21:59:00,39.0,16.2,23.54,WNW,288,0.0,0.0,39,0.00,,---,0.00,VWS V14.00,2013-03-31 04:59:00,
2013-03-30 22:04:00,38.8,16.0,23.54,WNW,288,0.0,0.0,39,0.00,,---,0.00,VWS V14.00,2013-03-31 05:04:00,
2013-03-30 22:09:00,38.7,15.9,23.54,WNW,288,0.0,0.0,39,0.00,,---,0.00,VWS V14.00,2013-03-31 05:09:00,
2013-03-30 22:14:00,38.3,15.5,23.54,WNW,288,0.0,0.0,39,0.00,,---,0.00,VWS V14.00,2013-03-31 05:14:00,
2013-03-30 22:19:00,37.9,15.2,23.54,WNW,288,0.0,0.0,39,0.00,,---,0.00,VWS V14.00,2013-03-31 05:19:00,
2013-03-30 22:24:00,37.8,15.0,23.54,WNW,288,0.0,0.0,39,0.00,,---,0.00,VWS V14.00,2013-03-31 05:24:00,
2013-03-30 22:29:00,37.4,14.7,23.54,WNW,288,0.0,0.0,39,0.00,,---,0.00,VWS V14.00,2013-03-31 05:29:00,
2013-03-30 22:34:00,37.2,15.1,23.54,WNW,288,0.0,0.0,40,0.00,,---,0.00,VWS V14.00,2013-03-31 05:34:00,
2013-03-30 22:39:00,37.0,15.0,23.54,WNW,288,0.0,0.0,40,0.00,,---,0.00,VWS V14.00,2013-03-31 05:39:00,
2013-03-30 22:45:00,36.9,14.8,23.54,WNW,288,0.0,0.0,40,0.00,,---,0.00,VWS V14.00,2013-03-31 05:45:00,
2013-03-30 22:50:00,36.7,14.6,23.54,WNW,288,0.0,0.0,40,0.00,,---,0.00,VWS V14.00,2013-03-31 05:50:00,
2013-03-30 22:55:00,36.3,14.3,23.54,WNW,288,0.0,0.0,40,0.00,,---,0.00,VWS V14.00,2013-03-31 05:55:00,
2013-03-30 23:00:00,36.1,14.2,23.54,WNW,288,0.0,0.0,40,0.00,,---,0.00,VWS V14.00,2013-03-31 06:00:00,
2013-03-30 23:05:00,36.0,14.0,23.54,WNW,288,0.0,0.0,40,0.00,,---,0.00,VWS V14.00,2013-03-31 06:05:00,
2013-03-30 23:10:00,35.8,13.8,23.54,WNW,288,0.0,0.0,40,0.00,,---,0.00,VWS V14.00,2013-03-31 06:10:00,
2013-03-30 23:15:00,35.6,13.7,23.54,WNW,288,0.0,0.0,40,0.00,,---,0.00,VWS V14.00,2013-03-31 06:15:00,
2013-03-30 23:20:00,35.4,13.5,23.54,WNW,288,0.0,0.0,40,0.00,,---,0.00,VWS V14.00,2013-03-31 06:20:00,
2013-03-30 23:26:00,35.2,13.4,23.54,WNW,288,0.0,0.0,40,0.00,,---,0.00,VWS V14.00,2013-03-31 06:26:00,
2013-03-30 23:31:00,35.1,13.2,23.54,WNW,288,0.0,0.0,40,0.00,,---,0.00,VWS V14.00,2013-03-31 06:31:00,
2013-03-30 23:36:00,34.9,13.0,23.54,WNW,288,0.0,0.0,40,0.00,,---,0.00,VWS V14.00,2013-03-31 06:36:00,
2013-03-30 23:41:00,34.7,12.9,23.54,WNW,288,0.0,0.0,40,0.00,,---,0.00,VWS V14.00,2013-03-31 06:41:00,
2013-03-30 23:46:00,34.5,12.7,23.54,WNW,288,0.0,0.0,40,0.00,,---,0.00,VWS V14.00,2013-03-31 06:46:00,
2013-03-30 23:51:00,34.3,12.5,23.54,WNW,288,0.0,0.0,40,0.00,,---,0.00,VWS V14.00,2013-03-31 06:51:00,
2013-03-30 23:57:00,34.3,12.5,23.54,WNW,288,0.0,0.0,40,0.00,,---,0.00,VWS V14.00,2013-03-31 06:57:00,